Aérodrome :
LOGIN :

S'inscrire | Disclaimer

   EN    FR    IT 

 










Légende :    VFR   VFR Marginal   IFR   IFR Intensif   IFR Très Intensif
Visi : 
Plafond : 
>= 8 km
>= 3000ft
5 à 8 km
1000 à 3000 ft
1500m à 5 km
500 à 1000 ft
800 à 1500m
200 à 500 ft
< 800m
< 200 ft
Symboles :   Orages  Brouillard  Fortes neiges  Fortes précipitations  Vent > 20 kt
SIGMETs :   Divers  Orages  Givrage  Turbulence  Onde Orograph.  Cendres Volcan.







- Altitude de l'aérodrome : 235 ft
- Code IATA : BZG


EPBY - Bydgoszcz

DERNIER METAR :
  • 281000Z 08015KT 9999 BKN023 BKN027 22/16 Q1005

METARs EXPIRÉS :
  • 280930Z 09014KT 060V120 9999 BKN026 BKN030 23/16 Q1005
  • 280900Z 08014KT 9999 SCT026 22/15 Q1005
  • 280830Z 09013KT 9999 FEW026 22/15 Q1005
  • 280800Z 06011KT 9999 FEW025 21/14 Q1005
  • 280730Z 08010KT CAVOK 20/14 Q1006

TAF TAF EPBY
Valide du 28 à 06h jusqu'au 29 à 06h UTC


280530Z 2806/2906 08010KT CAVOK
PROB40
TEMPO 2818/2901 1500 TSRA BKN025CB
PROB40
TEMPO 2818/2901 VRB15G30KT 1000 TSGR
PROB40
TEMPO 2901/2905 BKN004
Pas de NOTAMs connus pour ce terrain.



MET'MAP, la Météo Aéronautique d'un coup d'oeil ! - Copyright ORBIFLY Décembre 2007 - Disclaimer

ORBIFLY MET'MAP TEAM :

Programmation & Développement : Alexandra Zaïnal
Conception & Développement : Baudouin d'Aumeries
Co-Programmation & Développement : Marc-Olivier Méhu
Soutien technique & logistique : Manuel Goepfert

Contact : metmap@orbifly.com




SOURCES & CREDITS :

   NOAA